sensor_id;sensor_type;location;lat;lon;timestamp;pressure;altitude;pressure_sealevel;temperature;humidity
15229;BME280;7717;47.792;12.076;2023-03-19T00:01:42;95836.00;;;5.02;100.00
15229;BME280;7717;47.792;12.076;2023-03-19T00:04:08;95841.84;;;4.98;100.00
15229;BME280;7717;47.792;12.076;2023-03-19T00:06:33;95843.22;;;4.69;100.00
15229;BME280;7717;47.792;12.076;2023-03-19T00:08:58;95853.25;;;4.62;100.00
15229;BME280;7717;47.792;12.076;2023-03-19T00:11:24;95858.34;;;4.63;100.00
15229;BME280;7717;47.792;12.076;2023-03-19T00:13:50;95850.72;;;4.62;100.00
15229;BME280;7717;47.792;12.076;2023-03-19T00:16:15;95855.88;;;4.69;100.00
15229;BME280;7717;47.792;12.076;2023-03-19T00:18:41;95854.16;;;4.68;100.00
15229;BME280;7717;47.792;12.076;2023-03-19T00:21:06;95851.56;;;4.64;100.00
15229;BME280;7717;47.792;12.076;2023-03-19T00:23:32;95850.47;;;4.45;100.00
15229;BME280;7717;47.792;12.076;2023-03-19T00:25:58;95854.72;;;4.46;100.00
15229;BME280;7717;47.792;12.076;2023-03-19T00:28:23;95863.03;;;4.36;100.00
15229;BME280;7717;47.792;12.076;2023-03-19T00:30:48;95863.72;;;4.24;100.00
15229;BME280;7717;47.792;12.076;2023-03-19T00:33:14;95861.97;;;4.21;100.00
15229;BME280;7717;47.792;12.076;2023-03-19T00:35:39;95865.59;;;4.39;100.00
15229;BME280;7717;47.792;12.076;2023-03-19T00:38:05;95855.38;;;4.32;100.00
15229;BME280;7717;47.792;12.076;2023-03-19T00:40:31;95854.44;;;4.26;100.00
15229;BME280;7717;47.792;12.076;2023-03-19T00:42:57;95834.75;;;4.08;100.00
15229;BME280;7717;47.792;12.076;2023-03-19T00:45:23;95845.59;;;3.99;100.00
15229;BME280;7717;47.792;12.076;2023-03-19T00:47:48;95862.69;;;4.12;100.00
15229;BME280;7717;47.792;12.076;2023-03-19T00:50:13;95862.63;;;4.09;100.00
15229;BME280;7717;47.792;12.076;2023-03-19T00:52:39;95874.53;;;4.13;100.00
15229;BME280;7717;47.792;12.076;2023-03-19T00:55:05;95878.72;;;4.11;100.00
15229;BME280;7717;47.792;12.076;2023-03-19T00:57:31;95870.38;;;4.19;100.00
15229;BME280;7717;47.792;12.076;2023-03-19T00:59:56;95882.28;;;4.24;100.00
15229;BME280;7717;47.792;12.076;2023-03-19T01:02:22;95873.00;;;4.25;100.00
15229;BME280;7717;47.792;12.076;2023-03-19T01:04:48;95877.09;;;4.15;100.00
15229;BME280;7717;47.792;12.076;2023-03-19T01:07:13;95867.81;;;4.17;100.00
15229;BME280;7717;47.792;12.076;2023-03-19T01:09:39;95871.19;;;4.16;100.00
15229;BME280;7717;47.792;12.076;2023-03-19T01:12:06;95883.00;;;4.15;100.00
15229;BME280;7717;47.792;12.076;2023-03-19T01:14:31;95888.94;;;4.16;100.00
15229;BME280;7717;47.792;12.076;2023-03-19T01:16:57;95886.31;;;4.11;100.00
15229;BME280;7717;47.792;12.076;2023-03-19T01:19:22;95879.50;;;4.09;100.00
15229;BME280;7717;47.792;12.076;2023-03-19T01:21:48;95895.41;;;3.99;100.00
15229;BME280;7717;47.792;12.076;2023-03-19T01:24:14;95902.06;;;3.93;100.00
15229;BME280;7717;47.792;12.076;2023-03-19T01:26:40;95907.78;;;3.82;100.00
15229;BME280;7717;47.792;12.076;2023-03-19T01:29:06;95916.19;;;3.81;100.00
15229;BME280;7717;47.792;12.076;2023-03-19T01:31:32;95913.63;;;3.79;100.00
15229;BME280;7717;47.792;12.076;2023-03-19T01:33:57;95902.09;;;3.96;100.00
15229;BME280;7717;47.792;12.076;2023-03-19T01:36:22;95904.72;;;4.01;100.00
15229;BME280;7717;47.792;12.076;2023-03-19T01:38:48;95899.56;;;3.96;100.00
15229;BME280;7717;47.792;12.076;2023-03-19T01:41:14;95903.81;;;3.97;100.00
15229;BME280;7717;47.792;12.076;2023-03-19T01:43:39;95900.41;;;3.94;100.00
15229;BME280;7717;47.792;12.076;2023-03-19T01:48:43;95900.38;;;3.92;100.00
15229;BME280;7717;47.792;12.076;2023-03-19T01:51:13;95906.97;;;3.84;100.00
15229;BME280;7717;47.792;12.076;2023-03-19T01:53:44;95903.50;;;3.79;100.00
15229;BME280;7717;47.792;12.076;2023-03-19T01:56:17;95894.34;;;3.86;100.00
15229;BME280;7717;47.792;12.076;2023-03-19T01:58:45;95901.78;;;3.78;100.00
15229;BME280;7717;47.792;12.076;2023-03-19T02:01:13;95901.59;;;3.66;100.00
15229;BME280;7717;47.792;12.076;2023-03-19T02:03:38;95897.44;;;3.69;100.00
15229;BME280;7717;47.792;12.076;2023-03-19T02:06:04;95897.44;;;3.69;100.00
15229;BME280;7717;47.792;12.076;2023-03-19T02:08:31;95887.06;;;3.55;100.00
15229;BME280;7717;47.792;12.076;2023-03-19T02:10:57;95889.72;;;3.62;100.00
15229;BME280;7717;47.792;12.076;2023-03-19T02:13:25;95890.53;;;3.60;100.00
15229;BME280;7717;47.792;12.076;2023-03-19T02:15:52;95886.38;;;3.63;100.00
15229;BME280;7717;47.792;12.076;2023-03-19T02:18:17;95890.66;;;3.67;100.00
15229;BME280;7717;47.792;12.076;2023-03-19T02:24:07;95879.03;;;3.79;100.00
15229;BME280;7717;47.792;12.076;2023-03-19T02:26:37;95869.31;;;4.04;100.00
15229;BME280;7717;47.792;12.076;2023-03-19T02:29:03;95884.53;;;4.06;100.00
15229;BME280;7717;47.792;12.076;2023-03-19T02:31:28;95882.16;;;4.15;100.00
15229;BME280;7717;47.792;12.076;2023-03-19T02:33:58;95873.59;;;4.07;100.00
15229;BME280;7717;47.792;12.076;2023-03-19T02:36:27;95875.41;;;4.17;100.00
15229;BME280;7717;47.792;12.076;2023-03-19T02:38:56;95880.56;;;4.23;100.00
15229;BME280;7717;47.792;12.076;2023-03-19T02:41:23;95882.00;;;4.06;100.00
15229;BME280;7717;47.792;12.076;2023-03-19T02:43:49;95875.31;;;4.11;100.00
15229;BME280;7717;47.792;12.076;2023-03-19T02:46:15;95883.03;;;4.19;100.00
15229;BME280;7717;47.792;12.076;2023-03-19T02:48:41;95877.91;;;4.15;100.00
15229;BME280;7717;47.792;12.076;2023-03-19T02:51:06;95883.38;;;3.85;100.00
15229;BME280;7717;47.792;12.076;2023-03-19T02:53:32;95888.31;;;3.79;100.00
15229;BME280;7717;47.792;12.076;2023-03-19T02:55:59;95892.03;;;4.00;100.00
15229;BME280;7717;47.792;12.076;2023-03-19T02:58:24;95887.50;;;3.80;100.00
15229;BME280;7717;47.792;12.076;2023-03-19T03:00:50;95894.84;;;3.65;100.00
15229;BME280;7717;47.792;12.076;2023-03-19T03:03:16;95898.94;;;3.58;100.00
15229;BME280;7717;47.792;12.076;2023-03-19T03:05:42;95910.53;;;3.47;100.00
15229;BME280;7717;47.792;12.076;2023-03-19T03:08:07;95909.66;;;3.45;100.00
15229;BME280;7717;47.792;12.076;2023-03-19T03:10:33;95906.47;;;3.55;100.00
15229;BME280;7717;47.792;12.076;2023-03-19T03:12:59;95910.59;;;3.51;100.00
15229;BME280;7717;47.792;12.076;2023-03-19T03:15:25;95915.63;;;3.48;100.00
15229;BME280;7717;47.792;12.076;2023-03-19T03:17:51;95922.22;;;3.40;100.00
15229;BME280;7717;47.792;12.076;2023-03-19T03:20:17;95918.81;;;3.38;100.00
15229;BME280;7717;47.792;12.076;2023-03-19T03:22:44;95918.38;;;3.60;100.00
15229;BME280;7717;47.792;12.076;2023-03-19T03:25:11;95920.66;;;3.47;100.00
15229;BME280;7717;47.792;12.076;2023-03-19T03:27:37;95928.34;;;3.53;100.00
15229;BME280;7717;47.792;12.076;2023-03-19T03:30:04;95930.75;;;3.47;100.00
15229;BME280;7717;47.792;12.076;2023-03-19T03:32:31;95921.34;;;3.38;100.00
15229;BME280;7717;47.792;12.076;2023-03-19T03:34:56;95915.34;;;3.34;100.00
15229;BME280;7717;47.792;12.076;2023-03-19T03:37:21;95913.88;;;3.44;100.00
15229;BME280;7717;47.792;12.076;2023-03-19T03:39:47;95917.69;;;3.23;100.00
15229;BME280;7717;47.792;12.076;2023-03-19T03:42:12;95905.94;;;3.26;100.00
15229;BME280;7717;47.792;12.076;2023-03-19T03:44:38;95927.13;;;3.32;100.00
15229;BME280;7717;47.792;12.076;2023-03-19T03:47:04;95924.88;;;3.46;100.00
15229;BME280;7717;47.792;12.076;2023-03-19T03:49:29;95925.78;;;3.51;100.00
15229;BME280;7717;47.792;12.076;2023-03-19T03:51:54;95921.66;;;3.55;100.00
15229;BME280;7717;47.792;12.076;2023-03-19T03:54:20;95915.84;;;3.60;100.00
15229;BME280;7717;47.792;12.076;2023-03-19T03:56:45;95926.88;;;3.63;100.00
15229;BME280;7717;47.792;12.076;2023-03-19T03:59:11;95926.00;;;3.62;100.00
15229;BME280;7717;47.792;12.076;2023-03-19T04:01:36;95935.09;;;3.52;100.00
15229;BME280;7717;47.792;12.076;2023-03-19T04:04:02;95944.56;;;3.63;100.00
15229;BME280;7717;47.792;12.076;2023-03-19T04:06:27;95936.16;;;3.65;100.00
15229;BME280;7717;47.792;12.076;2023-03-19T04:08:53;95932.69;;;3.58;100.00
15229;BME280;7717;47.792;12.076;2023-03-19T04:11:19;95939.78;;;3.79;100.00
15229;BME280;7717;47.792;12.076;2023-03-19T04:13:44;95937.41;;;3.87;100.00
15229;BME280;7717;47.792;12.076;2023-03-19T04:16:11;95931.44;;;3.84;100.00
15229;BME280;7717;47.792;12.076;2023-03-19T04:18:37;95938.44;;;3.97;100.00
15229;BME280;7717;47.792;12.076;2023-03-19T04:21:06;95949.22;;;3.87;100.00
15229;BME280;7717;47.792;12.076;2023-03-19T04:23:32;95948.31;;;3.83;100.00
15229;BME280;7717;47.792;12.076;2023-03-19T04:26:02;95945.72;;;3.80;100.00
15229;BME280;7717;47.792;12.076;2023-03-19T04:28:28;95946.25;;;3.64;100.00
15229;BME280;7717;47.792;12.076;2023-03-19T04:31:20;95946.16;;;3.57;100.00
15229;BME280;7717;47.792;12.076;2023-03-19T04:33:46;95955.25;;;3.48;100.00
15229;BME280;7717;47.792;12.076;2023-03-19T04:36:11;95948.44;;;3.45;100.00
15229;BME280;7717;47.792;12.076;2023-03-19T04:38:37;95961.44;;;3.19;100.00
15229;BME280;7717;47.792;12.076;2023-03-19T04:41:02;95965.09;;;3.34;100.00
15229;BME280;7717;47.792;12.076;2023-03-19T04:43:28;95965.91;;;3.33;100.00
15229;BME280;7717;47.792;12.076;2023-03-19T04:45:54;95970.34;;;3.43;100.00
15229;BME280;7717;47.792;12.076;2023-03-19T04:48:20;95964.19;;;3.30;100.00
15229;BME280;7717;47.792;12.076;2023-03-19T04:50:45;95960.16;;;3.40;100.00
15229;BME280;7717;47.792;12.076;2023-03-19T04:53:11;95971.38;;;3.53;100.00
15229;BME280;7717;47.792;12.076;2023-03-19T04:55:37;95953.63;;;3.51;100.00
15229;BME280;7717;47.792;12.076;2023-03-19T04:58:03;95975.75;;;3.62;100.00
15229;BME280;7717;47.792;12.076;2023-03-19T05:00:28;95972.31;;;3.58;100.00
15229;BME280;7717;47.792;12.076;2023-03-19T05:02:55;95969.09;;;3.67;100.00
15229;BME280;7717;47.792;12.076;2023-03-19T05:05:21;95968.94;;;3.59;100.00
15229;BME280;7717;47.792;12.076;2023-03-19T05:07:46;95967.28;;;3.59;100.00
15229;BME280;7717;47.792;12.076;2023-03-19T05:10:11;95968.94;;;3.57;100.00
15229;BME280;7717;47.792;12.076;2023-03-19T05:12:37;95979.84;;;3.53;100.00
15229;BME280;7717;47.792;12.076;2023-03-19T05:15:02;95975.75;;;3.62;100.00
15229;BME280;7717;47.792;12.076;2023-03-19T05:17:29;95978.28;;;3.62;100.00
15229;BME280;7717;47.792;12.076;2023-03-19T05:19:55;95991.84;;;3.65;100.00
15229;BME280;7717;47.792;12.076;2023-03-19T05:22:21;95984.41;;;3.73;100.00
15229;BME280;7717;47.792;12.076;2023-03-19T05:24:48;95997.75;;;3.64;100.00
15229;BME280;7717;47.792;12.076;2023-03-19T05:27:14;96004.81;;;3.82;100.00
15229;BME280;7717;47.792;12.076;2023-03-19T05:29:39;95994.91;;;3.93;100.00
15229;BME280;7717;47.792;12.076;2023-03-19T05:32:05;96008.84;;;4.18;100.00
15229;BME280;7717;47.792;12.076;2023-03-19T05:34:31;96013.56;;;4.48;100.00
15229;BME280;7717;47.792;12.076;2023-03-19T05:36:57;95999.53;;;4.67;100.00
15229;BME280;7717;47.792;12.076;2023-03-19T05:39:22;96003.00;;;4.76;100.00
15229;BME280;7717;47.792;12.076;2023-03-19T05:41:48;96000.56;;;4.82;100.00
15229;BME280;7717;47.792;12.076;2023-03-19T05:44:14;96000.38;;;4.69;100.00
15229;BME280;7717;47.792;12.076;2023-03-19T05:46:40;96007.34;;;4.81;100.00
15229;BME280;7717;47.792;12.076;2023-03-19T05:49:08;96009.91;;;4.83;100.00
15229;BME280;7717;47.792;12.076;2023-03-19T05:51:34;96018.59;;;5.00;100.00
15229;BME280;7717;47.792;12.076;2023-03-19T05:53:59;96012.88;;;5.17;100.00
15229;BME280;7717;47.792;12.076;2023-03-19T05:56:24;96011.19;;;5.16;100.00
15229;BME280;7717;47.792;12.076;2023-03-19T05:58:50;96012.81;;;5.11;100.00
15229;BME280;7717;47.792;12.076;2023-03-19T06:01:15;96023.38;;;5.43;100.00
15229;BME280;7717;47.792;12.076;2023-03-19T06:03:41;96027.94;;;5.70;100.00
15229;BME280;7717;47.792;12.076;2023-03-19T06:06:07;96039.97;;;5.84;100.00
15229;BME280;7717;47.792;12.076;2023-03-19T06:08:33;96035.94;;;6.00;100.00
15229;BME280;7717;47.792;12.076;2023-03-19T06:10:58;96047.25;;;6.29;100.00
15229;BME280;7717;47.792;12.076;2023-03-19T06:13:24;96046.59;;;6.51;100.00
15229;BME280;7717;47.792;12.076;2023-03-19T06:15:49;96037.47;;;6.73;100.00
15229;BME280;7717;47.792;12.076;2023-03-19T06:18:16;96042.72;;;6.96;100.00
15229;BME280;7717;47.792;12.076;2023-03-19T06:20:42;96048.78;;;7.13;100.00
15229;BME280;7717;47.792;12.076;2023-03-19T06:23:07;96052.19;;;7.17;100.00
15229;BME280;7717;47.792;12.076;2023-03-19T06:25:33;96066.75;;;7.39;100.00
15229;BME280;7717;47.792;12.076;2023-03-19T06:27:58;96061.69;;;7.44;100.00
15229;BME280;7717;47.792;12.076;2023-03-19T06:30:24;96069.22;;;7.27;100.00
15229;BME280;7717;47.792;12.076;2023-03-19T06:32:49;96066.81;;;7.47;100.00
15229;BME280;7717;47.792;12.076;2023-03-19T06:35:15;96072.81;;;7.62;100.00
15229;BME280;7717;47.792;12.076;2023-03-19T06:37:40;96065.19;;;7.62;100.00
15229;BME280;7717;47.792;12.076;2023-03-19T06:40:06;96067.88;;;7.91;100.00
15229;BME280;7717;47.792;12.076;2023-03-19T06:42:32;96065.38;;;8.05;100.00
15229;BME280;7717;47.792;12.076;2023-03-19T06:44:57;96067.94;;;8.25;100.00
15229;BME280;7717;47.792;12.076;2023-03-19T06:47:22;96075.59;;;8.26;100.00
15229;BME280;7717;47.792;12.076;2023-03-19T06:49:48;96084.16;;;8.39;100.00
15229;BME280;7717;47.792;12.076;2023-03-19T06:52:13;96084.22;;;8.65;100.00
15229;BME280;7717;47.792;12.076;2023-03-19T06:54:38;96083.41;;;9.02;100.00
15229;BME280;7717;47.792;12.076;2023-03-19T06:57:04;96080.78;;;9.37;100.00
15229;BME280;7717;47.792;12.076;2023-03-19T06:59:29;96084.97;;;9.83;100.00
15229;BME280;7717;47.792;12.076;2023-03-19T07:01:55;96070.22;;;10.46;100.00
15229;BME280;7717;47.792;12.076;2023-03-19T07:04:20;96054.34;;;11.13;100.00
15229;BME280;7717;47.792;12.076;2023-03-19T07:06:46;96040.94;;;11.74;100.00
15229;BME280;7717;47.792;12.076;2023-03-19T07:09:11;96054.19;;;12.10;100.00
15229;BME280;7717;47.792;12.076;2023-03-19T07:11:36;96041.78;;;12.42;100.00
15229;BME280;7717;47.792;12.076;2023-03-19T07:14:03;96052.59;;;12.65;99.89
15229;BME280;7717;47.792;12.076;2023-03-19T07:16:28;96026.78;;;12.74;95.28
15229;BME280;7717;47.792;12.076;2023-03-19T07:18:53;96059.19;;;12.79;95.34
15229;BME280;7717;47.792;12.076;2023-03-19T07:21:20;96046.13;;;12.95;93.07
15229;BME280;7717;47.792;12.076;2023-03-19T07:23:45;96059.31;;;13.25;93.45
15229;BME280;7717;47.792;12.076;2023-03-19T07:26:11;96067.69;;;13.38;93.17
15229;BME280;7717;47.792;12.076;2023-03-19T07:28:37;96053.00;;;13.46;90.66
15229;BME280;7717;47.792;12.076;2023-03-19T07:31:03;96072.44;;;13.59;91.66
15229;BME280;7717;47.792;12.076;2023-03-19T07:33:28;96057.69;;;13.71;90.03
15229;BME280;7717;47.792;12.076;2023-03-19T07:35:53;96093.69;;;13.71;90.78
15229;BME280;7717;47.792;12.076;2023-03-19T07:38:19;96093.09;;;13.56;90.01
15229;BME280;7717;47.792;12.076;2023-03-19T07:40:44;96124.22;;;13.89;92.60
15229;BME280;7717;47.792;12.076;2023-03-19T07:43:09;96090.22;;;13.72;90.20
15229;BME280;7717;47.792;12.076;2023-03-19T07:45:35;96094.97;;;13.93;89.82
15229;BME280;7717;47.792;12.076;2023-03-19T07:48:00;96112.63;;;14.12;90.47
15229;BME280;7717;47.792;12.076;2023-03-19T07:50:28;96145.03;;;14.22;92.35
15229;BME280;7717;47.792;12.076;2023-03-19T07:52:54;96138.41;;;13.63;90.63
15229;BME280;7717;47.792;12.076;2023-03-19T07:55:20;96147.41;;;13.86;92.96
15229;BME280;7717;47.792;12.076;2023-03-19T07:57:46;96147.22;;;13.97;93.53
15229;BME280;7717;47.792;12.076;2023-03-19T08:00:12;96126.13;;;13.78;91.56
15229;BME280;7717;47.792;12.076;2023-03-19T08:02:37;96123.19;;;13.98;91.25
15229;BME280;7717;47.792;12.076;2023-03-19T08:05:03;96124.22;;;13.89;91.99
15229;BME280;7717;47.792;12.076;2023-03-19T08:07:29;96128.56;;;13.85;91.96
15229;BME280;7717;47.792;12.076;2023-03-19T08:09:55;96143.94;;;13.90;93.21
15229;BME280;7717;47.792;12.076;2023-03-19T08:12:22;96142.00;;;14.01;93.09
15229;BME280;7717;47.792;12.076;2023-03-19T08:14:48;96141.97;;;14.03;92.82
15229;BME280;7717;47.792;12.076;2023-03-19T08:17:13;96127.78;;;13.82;90.91
15229;BME280;7717;47.792;12.076;2023-03-19T08:19:38;96142.03;;;13.98;92.60
15229;BME280;7717;47.792;12.076;2023-03-19T08:22:04;96114.50;;;14.05;90.53
15229;BME280;7717;47.792;12.076;2023-03-19T08:24:30;96115.13;;;14.16;92.24
15229;BME280;7717;47.792;12.076;2023-03-19T08:26:55;96133.22;;;14.96;92.28
15229;BME280;7717;47.792;12.076;2023-03-19T08:29:21;96122.53;;;15.47;89.75
15229;BME280;7717;47.792;12.076;2023-03-19T08:31:46;96103.00;;;15.01;87.62
15229;BME280;7717;47.792;12.076;2023-03-19T08:34:11;96109.94;;;15.35;88.32
15229;BME280;7717;47.792;12.076;2023-03-19T08:36:37;96112.59;;;15.32;87.79
15229;BME280;7717;47.792;12.076;2023-03-19T08:39:02;96115.50;;;15.18;88.13
15229;BME280;7717;47.792;12.076;2023-03-19T08:41:28;96141.84;;;15.31;89.26
15229;BME280;7717;47.792;12.076;2023-03-19T08:43:54;96116.06;;;14.93;87.56
15229;BME280;7717;47.792;12.076;2023-03-19T08:46:19;96137.88;;;14.80;88.19
15229;BME280;7717;47.792;12.076;2023-03-19T08:48:45;96123.78;;;14.54;87.30
15229;BME280;7717;47.792;12.076;2023-03-19T08:51:10;96153.75;;;14.60;88.71
15229;BME280;7717;47.792;12.076;2023-03-19T08:53:36;96146.44;;;14.81;88.18
15229;BME280;7717;47.792;12.076;2023-03-19T08:56:04;96117.03;;;14.49;86.07
15229;BME280;7717;47.792;12.076;2023-03-19T08:58:30;96158.78;;;14.66;88.73
15229;BME280;7717;47.792;12.076;2023-03-19T09:01:06;96129.38;;;14.75;87.11
15229;BME280;7717;47.792;12.076;2023-03-19T09:03:33;96165.00;;;14.95;89.22
15229;BME280;7717;47.792;12.076;2023-03-19T09:06:02;96135.56;;;15.05;87.23
15229;BME280;7717;47.792;12.076;2023-03-19T09:08:28;96125.75;;;15.21;86.40
15229;BME280;7717;47.792;12.076;2023-03-19T09:10:55;96161.44;;;15.38;89.02
15229;BME280;7717;47.792;12.076;2023-03-19T09:13:20;96161.50;;;15.71;88.49
15229;BME280;7717;47.792;12.076;2023-03-19T09:15:46;96150.88;;;15.85;87.36
15229;BME280;7717;47.792;12.076;2023-03-19T09:18:12;96145.50;;;15.93;86.54
15229;BME280;7717;47.792;12.076;2023-03-19T09:20:37;96131.72;;;15.92;85.92
15229;BME280;7717;47.792;12.076;2023-03-19T09:23:02;96158.59;;;15.51;87.11
15229;BME280;7717;47.792;12.076;2023-03-19T09:25:28;96120.53;;;15.59;84.60
15229;BME280;7717;47.792;12.076;2023-03-19T09:27:53;96152.06;;;16.05;86.66
15229;BME280;7717;47.792;12.076;2023-03-19T09:30:19;96131.09;;;15.84;85.03
15229;BME280;7717;47.792;12.076;2023-03-19T09:32:44;96164.84;;;15.40;86.99
15229;BME280;7717;47.792;12.076;2023-03-19T09:35:10;96171.94;;;15.30;87.31
15229;BME280;7717;47.792;12.076;2023-03-19T09:37:35;96168.13;;;15.09;87.24
15229;BME280;7717;47.792;12.076;2023-03-19T09:40:01;96192.16;;;15.11;89.24
15229;BME280;7717;47.792;12.076;2023-03-19T09:42:42;96181.56;;;14.85;87.49
15229;BME280;7717;47.792;12.076;2023-03-19T09:45:15;96149.16;;;14.74;85.84
15229;BME280;7717;47.792;12.076;2023-03-19T09:47:42;96194.72;;;14.72;89.30
15229;BME280;7717;47.792;12.076;2023-03-19T09:55:50;96189.22;;;14.46;88.58
15229;BME280;7717;47.792;12.076;2023-03-19T09:58:21;96197.69;;;14.51;90.05
15229;BME280;7717;47.792;12.076;2023-03-19T10:00:51;96166.72;;;14.54;90.28
15229;BME280;7717;47.792;12.076;2023-03-19T10:06:27;96169.50;;;14.43;88.51
15229;BME280;7717;47.792;12.076;2023-03-19T10:17:32;96164.94;;;14.14;88.12
15229;BME280;7717;47.792;12.076;2023-03-19T10:20:04;96157.66;;;13.89;87.89
15229;BME280;7717;47.792;12.076;2023-03-19T10:22:37;96164.06;;;14.15;88.81
15229;BME280;7717;47.792;12.076;2023-03-19T10:25:10;96144.41;;;14.11;86.45
15229;BME280;7717;47.792;12.076;2023-03-19T10:27:37;96162.22;;;14.21;88.67
15229;BME280;7717;47.792;12.076;2023-03-19T10:30:14;96150.59;;;14.00;86.91
15229;BME280;7717;47.792;12.076;2023-03-19T10:32:45;96155.97;;;13.88;87.46
15229;BME280;7717;47.792;12.076;2023-03-19T10:35:22;96166.44;;;14.26;88.80
15229;BME280;7717;47.792;12.076;2023-03-19T10:37:48;96174.94;;;14.29;88.96
15229;BME280;7717;47.792;12.076;2023-03-19T10:40:25;96167.16;;;14.32;88.54
15229;BME280;7717;47.792;12.076;2023-03-19T10:43:05;96151.34;;;14.07;87.29
15229;BME280;7717;47.792;12.076;2023-03-19T10:45:36;96190.22;;;13.92;90.03
15229;BME280;7717;47.792;12.076;2023-03-19T10:48:03;96179.41;;;14.19;90.04
15229;BME280;7717;47.792;12.076;2023-03-19T10:50:48;96179.84;;;14.42;90.52
15229;BME280;7717;47.792;12.076;2023-03-19T10:55:53;96139.69;;;14.31;87.55
15229;BME280;7717;47.792;12.076;2023-03-19T10:58:22;96150.34;;;14.58;87.71
15229;BME280;7717;47.792;12.076;2023-03-19T11:00:55;96165.53;;;14.27;88.62
15229;BME280;7717;47.792;12.076;2023-03-19T11:03:48;96150.72;;;14.39;87.71
15229;BME280;7717;47.792;12.076;2023-03-19T11:08:41;96168.19;;;14.22;88.94
15229;BME280;7717;47.792;12.076;2023-03-19T11:11:22;96140.91;;;14.57;85.93
15229;BME280;7717;47.792;12.076;2023-03-19T11:13:48;96162.97;;;14.27;87.72
15229;BME280;7717;47.792;12.076;2023-03-19T11:16:13;96169.66;;;14.79;88.79
15229;BME280;7717;47.792;12.076;2023-03-19T11:18:40;96167.31;;;15.07;88.78
15229;BME280;7717;47.792;12.076;2023-03-19T11:24:00;96100.22;;;16.12;83.40
15229;BME280;7717;47.792;12.076;2023-03-19T11:26:27;96109.28;;;16.57;84.10
15229;BME280;7717;47.792;12.076;2023-03-19T11:28:59;96065.38;;;16.55;80.76
15229;BME280;7717;47.792;12.076;2023-03-19T11:31:32;96078.06;;;16.93;81.28
15229;BME280;7717;47.792;12.076;2023-03-19T11:36:50;96057.56;;;17.66;79.89
15229;BME280;7717;47.792;12.076;2023-03-19T11:39:48;95998.63;;;18.21;75.83
15229;BME280;7717;47.792;12.076;2023-03-19T11:48:15;96015.00;;;18.90;76.26
15229;BME280;7717;47.792;12.076;2023-03-19T11:50:55;96027.88;;;18.47;76.08
15229;BME280;7717;47.792;12.076;2023-03-19T11:56:15;95901.44;;;19.37;69.73
15229;BME280;7717;47.792;12.076;2023-03-19T12:09:27;95949.56;;;20.78;70.90
15229;BME280;7717;47.792;12.076;2023-03-19T12:12:09;95964.88;;;20.47;71.76
15229;BME280;7717;47.792;12.076;2023-03-19T12:23:15;96002.06;;;19.51;72.78
15229;BME280;7717;47.792;12.076;2023-03-19T12:26:07;95952.50;;;19.76;69.70
15229;BME280;7717;47.792;12.076;2023-03-19T12:28:39;96012.66;;;18.61;72.29
15229;BME280;7717;47.792;12.076;2023-03-19T12:33:51;96064.28;;;18.20;75.27
15229;BME280;7717;47.792;12.076;2023-03-19T12:36:23;96027.75;;;18.04;72.81
15229;BME280;7717;47.792;12.076;2023-03-19T12:38:57;96038.16;;;18.03;73.75
15229;BME280;7717;47.792;12.076;2023-03-19T12:41:28;95997.84;;;18.19;71.15
15229;BME280;7717;47.792;12.076;2023-03-19T12:46:33;95921.03;;;20.40;68.64
15229;BME280;7717;47.792;12.076;2023-03-19T12:51:34;95800.84;;;22.91;61.28
15229;BME280;7717;47.792;12.076;2023-03-19T12:54:05;95849.25;;;23.11;63.58
15229;BME280;7717;47.792;12.076;2023-03-19T12:56:51;95799.94;;;22.48;60.30
15229;BME280;7717;47.792;12.076;2023-03-19T12:59:39;95721.53;;;24.04;56.68
15229;BME280;7717;47.792;12.076;2023-03-19T13:04:38;95834.97;;;23.60;62.69
15229;BME280;7717;47.792;12.076;2023-03-19T13:07:33;95728.53;;;23.77;55.79
15229;BME280;7717;47.792;12.076;2023-03-19T13:10:16;95777.38;;;24.31;58.19
15229;BME280;7717;47.792;12.076;2023-03-19T13:12:42;95758.94;;;23.92;57.31
15229;BME280;7717;47.792;12.076;2023-03-19T13:15:32;95844.84;;;21.08;60.54
15229;BME280;7717;47.792;12.076;2023-03-19T13:23:30;95768.00;;;24.54;56.74
15229;BME280;7717;47.792;12.076;2023-03-19T13:25:58;95767.28;;;24.90;56.45
15229;BME280;7717;47.792;12.076;2023-03-19T13:28:36;95695.19;;;25.96;52.92
15229;BME280;7717;47.792;12.076;2023-03-19T13:31:16;95716.66;;;26.25;54.14
15229;BME280;7717;47.792;12.076;2023-03-19T13:34:03;95684.34;;;25.41;50.64
15229;BME280;7717;47.792;12.076;2023-03-19T13:36:35;95811.50;;;24.55;56.51
15229;BME280;7717;47.792;12.076;2023-03-19T13:39:02;95906.28;;;23.33;62.21
15229;BME280;7717;47.792;12.076;2023-03-19T13:43:58;95996.06;;;20.47;67.05
15229;BME280;7717;47.792;12.076;2023-03-19T13:46:35;95972.50;;;19.35;63.83
15229;BME280;7717;47.792;12.076;2023-03-19T13:49:09;95989.84;;;18.92;64.91
15229;BME280;7717;47.792;12.076;2023-03-19T13:51:49;95985.84;;;19.46;66.14
15229;BME280;7717;47.792;12.076;2023-03-19T13:54:15;95967.47;;;18.89;64.53
15229;BME280;7717;47.792;12.076;2023-03-19T13:59:35;95968.09;;;19.56;65.35
15229;BME280;7717;47.792;12.076;2023-03-19T14:07:38;95951.34;;;18.81;64.78
15229;BME280;7717;47.792;12.076;2023-03-19T14:12:40;95952.28;;;18.58;66.10
15229;BME280;7717;47.792;12.076;2023-03-19T14:23:02;95913.28;;;19.24;63.36
15229;BME280;7717;47.792;12.076;2023-03-19T14:28:45;95927.41;;;19.17;64.29
15229;BME280;7717;47.792;12.076;2023-03-19T14:31:35;95910.94;;;19.57;63.87
15229;BME280;7717;47.792;12.076;2023-03-19T14:34:18;95937.72;;;18.98;64.80
15229;BME280;7717;47.792;12.076;2023-03-19T14:39:32;95926.22;;;19.64;64.83
15229;BME280;7717;47.792;12.076;2023-03-19T14:42:03;95887.66;;;20.84;62.66
15229;BME280;7717;47.792;12.076;2023-03-19T14:47:47;95848.66;;;21.18;60.64
15229;BME280;7717;47.792;12.076;2023-03-19T14:50:52;95852.34;;;20.26;60.40
15229;BME280;7717;47.792;12.076;2023-03-19T14:53:36;95833.78;;;20.52;60.00